Time;durP1;ratioP1;P1;durP2;ratioP2;P2;SDS_P1;SDS_P2;PMS_P1;PMS_P2;Temp;Humidity;BMP_temperature;BMP_pressure;BME280_temperature;BME280_humidity;BME280_pressure;Samples;Min_cycle;Max_cycle;Signal;HPM_P1;HPM_P2
2022/04/26 03:36:11;;;;;;;16.25;7.53;;;;;;;9.30;56.57;101834.03;5179558;28;20411;-51
2022/04/26 03:38:48;;;;;;;18.08;8.20;;;;;;;9.30;56.66;101845.41;5184384;28;20418;-52
2022/04/26 03:41:23;;;;;;;17.77;7.13;;;;;;;9.27;56.92;101844.81;5185583;28;20421;-49
2022/04/26 03:43:55;;;;;;;24.48;10.07;;;;;;;9.24;56.73;101852.00;5182750;28;20503;-49
2022/04/26 03:46:28;;;;;;;22.15;8.00;;;;;;;9.20;56.89;101847.91;5179638;28;20933;-50
2022/04/26 03:49:00;;;;;;;13.90;7.57;;;;;;;9.10;57.07;101844.28;5182859;28;20530;-49
2022/04/26 03:51:33;;;;;;;24.00;8.80;;;;;;;9.06;57.24;101853.38;5185612;28;20899;-47
2022/04/26 03:54:07;;;;;;;14.77;8.32;;;;;;;9.05;57.42;101846.44;5182926;28;20423;-48
2022/04/26 03:56:39;;;;;;;17.25;8.60;;;;;;;9.05;57.22;101856.13;5184819;28;20876;-48
2022/04/26 03:59:12;;;;;;;16.00;7.55;;;;;;;8.99;57.20;101846.91;5183713;28;20458;-48
2022/04/26 04:01:45;;;;;;;21.70;8.52;;;;;;;8.97;57.57;101854.06;5185594;28;20447;-49
2022/04/26 04:04:17;;;;;;;19.33;8.40;;;;;;;8.98;57.56;101855.72;5183214;28;20426;-47
2022/04/26 04:06:49;;;;;;;15.40;8.38;;;;;;;8.93;57.55;101852.63;5186483;28;20502;-47
2022/04/26 04:09:23;;;;;;;17.98;7.80;;;;;;;8.94;57.56;101854.28;5185676;28;20896;-51
2022/04/26 04:11:56;;;;;;;16.23;8.33;;;;;;;8.93;57.72;101857.88;5183946;28;20507;-46
2022/04/26 04:14:28;;;;;;;21.70;8.70;;;;;;;8.93;57.75;101852.63;5180639;28;20794;-49
2022/04/26 04:17:01;;;;;;;12.45;8.30;;;;;;;8.93;57.93;101847.34;5181830;28;20431;-48
2022/04/26 04:19:33;;;;;;;17.05;8.48;;;;;;;8.91;57.79;101849.25;5186019;28;20511;-45
2022/04/26 04:22:06;;;;;;;13.85;7.57;;;;;;;8.81;58.04;101853.53;5184296;28;20841;-49
2022/04/26 04:24:39;;;;;;;17.85;9.00;;;;;;;8.69;57.92;101850.84;5188743;28;20423;-50
2022/04/26 04:27:12;;;;;;;24.60;10.47;;;;;;;8.71;58.25;101859.47;5184631;28;20419;-51
2022/04/26 04:29:45;;;;;;;23.00;8.73;;;;;;;8.73;58.19;101862.84;5184474;28;20844;-49
2022/04/26 04:32:17;;;;;;;18.23;8.88;;;;;;;8.54;58.24;101842.25;5188460;28;20382;-48
2022/04/26 04:34:50;;;;;;;20.25;9.32;;;;;;;8.73;58.25;101873.38;5187446;28;20485;-47
2022/04/26 04:37:22;;;;;;;17.17;9.02;;;;;;;8.66;58.21;101869.50;5185801;28;20824;-49
2022/04/26 04:39:56;;;;;;;21.70;10.60;;;;;;;8.66;58.16;101866.84;5187811;28;20419;-48
2022/04/26 04:42:28;;;;;;;21.55;9.00;;;;;;;8.68;58.33;101872.88;5181572;28;21559;-46
2022/04/26 04:45:02;;;;;;;24.45;9.45;;;;;;;8.65;58.43;101880.16;5189130;28;20472;-50
2022/04/26 04:47:34;;;;;;;17.27;8.93;;;;;;;8.71;58.60;101891.06;5188022;28;20430;-48
2022/04/26 04:50:09;;;;;;;18.40;8.60;;;;;;;8.72;58.32;101887.47;5178303;28;20446;-51
2022/04/26 04:52:41;;;;;;;20.90;9.87;;;;;;;8.71;58.53;101884.97;5189532;28;20435;-49
2022/04/26 04:55:15;;;;;;;22.60;9.75;;;;;;;8.64;58.38;101884.59;5186711;28;20486;-48
2022/04/26 04:57:47;;;;;;;17.50;8.63;;;;;;;8.78;58.44;101892.31;5158939;28;20490;-47
2022/04/26 05:00:20;;;;;;;20.58;9.73;;;;;;;8.78;58.51;101891.47;5175963;28;20422;-50
2022/04/26 05:02:53;;;;;;;19.38;9.13;;;;;;;8.85;58.69;101907.66;5188442;28;20411;-46
2022/04/26 05:05:25;;;;;;;23.77;9.63;;;;;;;8.89;58.62;101907.34;5185087;28;20498;-50
2022/04/26 05:08:00;;;;;;;18.23;8.73;;;;;;;8.88;58.80;101913.53;5184485;28;20814;-45
2022/04/26 05:10:36;;;;;;;13.73;7.65;;;;;;;8.87;58.69;101905.75;5186707;28;20418;-49
2022/04/26 05:13:08;;;;;;;17.85;8.65;;;;;;;8.95;58.77;101919.19;5181414;28;20417;-50
2022/04/26 05:15:44;;;;;;;14.00;8.25;;;;;;;8.89;58.88;101898.59;5196735;28;20463;-51
2022/04/26 05:18:17;;;;;;;14.73;8.20;;;;;;;8.96;59.11;101915.63;5191895;28;20895;-47
2022/04/26 05:20:49;;;;;;;20.98;9.43;;;;;;;8.97;58.98;101919.94;5188166;28;20415;-49
2022/04/26 05:26:13;;;;;;;25.17;8.73;;;;;;;8.91;58.99;101896.66;5188349;28;20907;-50
2022/04/26 05:28:46;;;;;;;16.15;8.18;;;;;;;9.00;58.97;101906.53;5189972;28;20813;-50
2022/04/26 05:31:19;;;;;;;18.30;6.75;;;;;;;9.09;59.14;101919.03;5203000;28;20497;-49
2022/04/26 05:33:51;;;;;;;16.17;7.20;;;;;;;9.14;59.16;101924.81;5201762;28;20406;-50
2022/04/26 05:36:24;;;;;;;14.20;6.72;;;;;;;9.14;59.38;101924.81;5189272;28;20504;-47
2022/04/26 05:38:56;;;;;;;15.85;7.40;;;;;;;9.27;59.35;101929.16;5186744;28;20415;-48
2022/04/26 05:41:30;;;;;;;20.50;7.25;;;;;;;9.34;59.18;101925.94;5185657;28;20823;-48
2022/04/26 05:44:03;;;;;;;15.43;6.80;;;;;;;9.43;59.17;101929.69;5185830;28;20484;-48
2022/04/26 05:46:36;;;;;;;17.63;6.65;;;;;;;9.44;59.14;101918.19;5188970;28;20465;-51
2022/04/26 05:49:09;;;;;;;18.15;6.63;;;;;;;9.35;59.04;101887.22;5189406;28;20415;-51
2022/04/26 05:51:41;;;;;;;14.13;5.80;;;;;;;10.16;58.52;101934.59;5198487;28;20462;-48
2022/04/26 05:54:13;;;;;;;16.55;6.05;;;;;;;11.59;57.45;101925.66;5188689;28;20451;-51
2022/04/26 05:56:48;;;;;;;15.10;5.45;;;;;;;13.31;55.83;101908.72;5175654;28;20417;-51
2022/04/26 05:59:21;;;;;;;14.70;4.53;;;;;;;14.92;54.55;101925.25;5169488;28;20418;-52
2022/04/26 06:01:53;;;;;;;12.13;4.07;;;;;;;16.33;53.29;101921.56;5169509;28;20496;-53
2022/04/26 06:04:26;;;;;;;10.82;4.28;;;;;;;17.42;52.21;101927.75;5169161;28;20892;-56
2022/04/26 06:06:58;;;;;;;12.52;4.70;;;;;;;18.25;51.18;101919.38;5176646;28;20470;-56
2022/04/26 06:09:31;;;;;;;15.30;4.57;;;;;;;19.04;50.18;101929.97;5173042;28;20437;-53
2022/04/26 06:12:10;;;;;;;14.77;4.30;;;;;;;19.93;48.90;101941.72;5170775;28;20452;-56
2022/04/26 06:14:42;;;;;;;14.77;4.18;;;;;;;20.67;47.81;101938.16;5166362;28;20460;-55
2022/04/26 06:17:14;;;;;;;9.93;3.80;;;;;;;21.38;46.55;101946.28;5165495;28;20435;-57
2022/04/26 06:19:47;;;;;;;14.17;4.00;;;;;;;22.09;45.45;101955.03;5166645;28;20444;-58
2022/04/26 06:22:21;;;;;;;7.83;3.67;;;;;;;22.90;44.21;101945.41;5166868;28;20467;-57
2022/04/26 06:24:54;;;;;;;14.25;4.35;;;;;;;23.26;43.42;101945.06;5167178;28;20579;-54
2022/04/26 06:27:28;;;;;;;8.95;3.92;;;;;;;23.18;43.16;101924.53;5165841;28;20905;-53
2022/04/26 06:30:00;;;;;;;12.88;4.75;;;;;;;;;;5170696;28;20411;-58
2022/04/26 06:32:33;;;;;;;11.07;4.07;;;;;;;24.03;41.88;101950.78;5189085;28;20422;-57
2022/04/26 06:35:06;;;;;;;14.50;4.82;;;;;;;24.42;41.07;101943.63;5164850;28;20443;-57
2022/04/26 06:37:39;;;;;;;16.90;4.05;;;;;;;24.42;40.72;101946.31;5165924;28;20452;-57
2022/04/26 06:40:12;;;;;;;14.43;4.10;;;;;;;24.70;40.00;101941.38;5164481;28;20425;-57
2022/04/26 06:42:45;;;;;;;11.88;3.95;;;;;;;25.12;39.32;101949.84;5163842;28;20472;-54
2022/04/26 06:45:18;;;;;;;8.77;3.23;;;;;;;25.44;38.71;101952.53;5165478;28;20430;-59
2022/04/26 06:47:50;;;;;;;12.85;3.53;;;;;;;25.21;38.70;101963.94;5158900;28;20407;-57
2022/04/26 06:50:23;;;;;;;15.38;3.72;;;;;;;24.69;38.89;101964.06;5164905;28;20413;-58
2022/04/26 06:52:56;;;;;;;12.80;4.07;;;;;;;23.56;39.68;101977.00;5154142;28;20416;-55
2022/04/26 06:55:28;;;;;;;13.10;3.60;;;;;;;22.63;40.37;101977.66;5159921;28;20920;-55
2022/04/26 06:58:02;;;;;;;13.23;4.10;;;;;;;21.39;40.76;101985.56;5152800;28;20451;-58
2022/04/26 07:00:35;;;;;;;12.73;4.18;;;;;;;19.78;41.96;101986.44;5162450;28;20423;-54
2022/04/26 07:03:08;;;;;;;8.90;4.55;;;;;;;18.88;42.74;101982.59;5161493;28;20516;-55
2022/04/26 07:05:41;;;;;;;9.48;4.07;;;;;;;18.16;43.32;101996.09;5159355;28;20516;-54
2022/04/26 07:08:13;;;;;;;14.68;3.65;;;;;;;17.11;43.73;101978.31;5130016;28;20449;-51
2022/04/26 07:10:46;;;;;;;11.55;3.92;;;;;;;16.38;44.38;101987.72;5160165;28;21813;-52
2022/04/26 07:13:20;;;;;;;9.50;4.43;;;;;;;15.84;44.79;102005.72;5158613;28;20416;-51
2022/04/26 07:15:52;;;;;;;11.63;4.65;;;;;;;15.78;44.81;101998.38;5156753;28;20412;-52
2022/04/26 07:18:26;;;;;;;13.37;5.00;;;;;;;15.67;44.50;101979.00;5157668;28;20510;-53
2022/04/26 07:20:58;;;;;;;10.30;3.88;;;;;;;16.62;44.04;101999.47;5159743;28;20428;-52
2022/04/26 07:23:31;;;;;;;11.80;3.83;;;;;;;17.03;43.20;101997.78;5165214;28;20462;-54
2022/04/26 07:26:03;;;;;;;10.50;4.33;;;;;;;17.07;43.33;102001.00;5155144;28;20772;-52
2022/04/26 07:28:37;;;;;;;12.47;4.17;;;;;;;17.06;43.19;101984.13;5165195;28;20574;-54
2022/04/26 07:31:09;;;;;;;8.02;3.35;;;;;;;17.27;43.30;102000.50;5174904;28;20423;-54
2022/04/26 07:36:34;;;;;;;7.88;3.28;;;;;;;16.71;43.33;101929.16;5162441;28;20912;-54
2022/04/26 07:39:07;;;;;;;9.52;3.03;;;;;;;17.84;42.80;102002.38;5163393;28;20488;-53
2022/04/26 07:41:39;;;;;;;12.80;3.55;;;;;;;19.07;41.78;101996.53;5161613;28;20431;-54
2022/04/26 07:44:13;;;;;;;8.93;3.15;;;;;;;20.39;40.63;102005.91;5164008;28;20415;-54
2022/04/26 07:46:48;;;;;;;8.45;3.30;;;;;;;21.53;39.70;102008.84;5165527;28;20411;-56
2022/04/26 07:49:23;;;;;;;9.65;2.92;;;;;;;22.36;39.06;102013.56;5167619;28;20448;-56
2022/04/26 07:51:55;;;;;;;6.80;2.70;;;;;;;22.91;38.92;102009.84;5165806;28;20417;-59
2022/04/26 07:54:28;;;;;;;6.50;2.23;;;;;;;23.25;38.44;102000.00;5162272;28;20506;-57
2022/04/26 07:57:02;;;;;;;10.52;2.80;;;;;;;23.31;38.72;102006.44;5162326;28;20479;-57
2022/04/26 07:59:36;;;;;;;10.10;2.80;;;;;;;22.89;39.09;102019.19;5165249;28;20432;-58
2022/04/26 08:02:08;;;;;;;6.32;2.30;;;;;;;22.17;39.90;102015.13;5163802;28;20425;-56
2022/04/26 08:04:41;;;;;;;4.97;2.22;;;;;;;22.22;39.97;102024.28;5159296;28;20431;-58
2022/04/26 08:07:14;;;;;;;8.05;2.60;;;;;;;21.57;40.26;102015.50;5168847;28;20539;-59
2022/04/26 08:09:46;;;;;;;7.38;2.72;;;;;;;21.21;40.84;102009.34;5169370;28;20432;-59
2022/04/26 08:12:19;;;;;;;7.82;2.60;;;;;;;21.23;40.49;102001.94;5167627;28;20448;-53
2022/04/26 08:14:52;;;;;;;7.73;2.97;;;;;;;20.84;40.94;102025.50;5168662;28;20435;-57
2022/04/26 08:17:25;;;;;;;8.40;2.58;;;;;;;21.06;40.92;102023.69;5170174;28;20420;-61
2022/04/26 08:19:57;;;;;;;8.83;2.70;;;;;;;20.70;40.65;102018.31;5167937;28;20463;-50
2022/04/26 08:22:31;;;;;;;6.28;2.70;;;;;;;20.59;40.90;102035.69;5169712;28;20512;-59
2022/04/26 08:27:54;;;;;;;9.57;3.10;;;;;;;20.16;40.86;102048.94;5167667;28;20409;-57
2022/04/26 08:30:30;;;;;;;8.57;3.03;;;;;;;19.78;40.84;102046.25;5169192;28;20405;-54
2022/04/26 08:33:03;;;;;;;7.47;3.30;;;;;;;19.20;41.13;102055.72;5166554;28;20760;-55
2022/04/26 08:35:35;;;;;;;9.20;3.65;;;;;;;18.75;41.10;102070.66;5162266;28;20457;-55
2022/04/26 08:38:08;;;;;;;5.55;2.92;;;;;;;18.07;41.96;102025.72;5165540;28;20519;-54
2022/04/26 08:40:43;;;;;;;6.60;2.70;;;;;;;18.05;42.18;102073.16;5173697;28;20445;-57
2022/04/26 08:43:15;;;;;;;11.95;3.10;;;;;;;17.79;42.56;102062.66;5140323;28;20794;-55
2022/04/26 08:45:49;;;;;;;8.63;3.65;;;;;;;17.58;42.42;102071.13;5163812;28;20425;-56
2022/04/26 08:51:13;;;;;;;11.10;3.55;;;;;;;16.98;42.53;102073.03;5165682;28;20819;-52
2022/04/26 08:53:46;;;;;;;8.00;3.28;;;;;;;16.66;42.65;102070.16;5167603;28;20887;-54
2022/04/26 08:56:20;;;;;;;5.95;3.17;;;;;;;16.48;42.82;102067.59;5175510;28;20426;-52
2022/04/26 08:58:53;;;;;;;7.80;3.03;;;;;;;16.35;42.61;102054.69;5187761;28;20417;-55
2022/04/26 09:01:27;;;;;;;7.43;3.30;;;;;;;16.77;42.18;102072.59;5191188;28;20994;-53
2022/04/26 09:04:01;;;;;;;8.52;3.03;;;;;;;16.95;41.86;102075.19;5187787;28;20452;-52
2022/04/26 09:06:40;;;;;;;10.50;3.15;;;;;;;16.75;41.77;102058.53;5189276;28;20462;-54
2022/04/26 09:09:14;;;;;;;12.00;2.80;;;;;;;16.67;41.69;102039.84;5190773;28;20471;-54
2022/04/26 09:11:47;;;;;;;7.20;2.78;;;;;;;15.85;41.88;102002.91;5185039;28;20545;-53
2022/04/26 09:14:32;;;;;;;8.77;3.08;;;;;;;16.17;42.38;102085.91;5171574;28;20992;-52
2022/04/26 09:17:09;;;;;;;3.72;2.60;;;;;;;16.09;42.27;102058.19;5173144;28;20456;-55
2022/04/26 09:19:48;;;;;;;9.02;3.20;;;;;;;16.22;42.08;102076.44;5179408;28;20427;-53
2022/04/26 09:22:22;;;;;;;7.40;2.87;;;;;;;16.27;42.03;102081.31;5169624;28;20431;-52
2022/04/26 09:24:59;;;;;;;6.57;2.75;;;;;;;16.50;41.64;102081.59;5169794;28;20562;-52
2022/04/26 09:27:36;;;;;;;6.40;2.40;;;;;;;16.88;41.27;102085.66;5172407;28;20442;-52
2022/04/26 09:30:09;;;;;;;7.63;2.72;;;;;;;16.99;40.95;102081.84;5181399;28;20421;-54
2022/04/26 09:32:48;;;;;;;8.27;2.92;;;;;;;17.07;40.91;102086.41;5181298;28;20426;-53
2022/04/26 09:35:22;;;;;;;6.85;2.50;;;;;;;17.00;40.68;102089.72;5183266;28;21010;-51
2022/04/26 09:37:54;;;;;;;6.30;2.83;;;;;;;16.46;41.25;102081.09;5184593;28;20465;-50
2022/04/26 09:40:31;;;;;;;7.83;2.97;;;;;;;16.51;41.10;102081.47;5183105;28;20493;-51
2022/04/26 09:43:14;;;;;;;6.53;2.88;;;;;;;16.87;40.57;102089.31;5178626;28;20422;-52
2022/04/26 09:45:56;;;;;;;6.38;2.90;;;;;;;16.75;40.56;102095.91;5185855;28;20861;-54
2022/04/26 09:48:32;;;;;;;7.78;3.08;;;;;;;16.63;40.72;102095.38;5181520;28;20418;-52
2022/04/26 09:51:05;;;;;;;9.88;2.83;;;;;;;16.89;40.44;102094.50;5188475;28;20425;-53
2022/04/26 09:53:38;;;;;;;6.13;3.05;;;;;;;17.23;40.12;102086.44;5183003;28;20430;-48
2022/04/26 09:56:14;;;;;;;6.05;2.58;;;;;;;17.37;40.09;102084.94;5180356;28;20442;-53
2022/04/26 09:58:47;;;;;;;4.93;2.67;;;;;;;16.97;40.22;102079.38;5180761;28;20948;-48
2022/04/26 10:01:20;;;;;;;6.47;2.80;;;;;;;16.78;40.28;102095.59;5183910;28;20422;-52
2022/04/26 10:03:56;;;;;;;5.60;2.50;;;;;;;16.65;40.37;102097.84;5188561;28;20401;-52
2022/04/26 10:06:33;;;;;;;5.18;2.30;;;;;;;16.64;40.26;102094.34;5180883;28;20415;-52
2022/04/26 10:09:07;;;;;;;4.30;2.60;;;;;;;16.60;40.16;102088.50;5184138;28;20777;-53
2022/04/26 10:11:40;;;;;;;4.15;2.72;;;;;;;16.85;39.95;102087.78;5181304;28;20760;-53
2022/04/26 10:14:13;;;;;;;6.78;2.70;;;;;;;17.06;39.66;102098.88;5182916;28;20423;-52
2022/04/26 10:16:47;;;;;;;4.95;2.55;;;;;;;17.10;39.53;102102.94;5178420;28;20848;-52
2022/04/26 10:19:22;;;;;;;11.30;3.17;;;;;;;17.17;39.42;102103.09;5180682;28;20947;-50
2022/04/26 10:21:55;;;;;;;7.85;3.42;;;;;;;17.38;39.22;102090.16;5159615;28;20408;-53
2022/04/26 10:24:28;;;;;;;6.82;2.65;;;;;;;17.45;39.02;102088.47;5167151;28;20485;-52
2022/04/26 10:27:19;;;;;;;7.32;3.00;;;;;;;17.62;38.98;102107.19;5153272;28;20986;-53
2022/04/26 10:29:52;;;;;;;7.20;2.75;;;;;;;17.57;39.09;102102.34;5175990;28;20911;-54
2022/04/26 10:32:34;;;;;;;9.35;2.40;;;;;;;17.21;39.06;102069.75;5182751;28;20505;-50
2022/04/26 10:35:32;;;;;;;6.63;2.55;;;;;;;17.19;39.34;102109.13;5171596;28;20422;-50
2022/04/26 10:38:12;;;;;;;7.53;2.60;;;;;;;17.45;38.95;102104.50;5178910;28;20439;-51
2022/04/26 10:41:09;;;;;;;7.20;2.80;;;;;;;17.47;38.84;102099.84;5188258;28;20425;-52
2022/04/26 10:44:01;;;;;;;5.53;2.60;;;;;;;17.60;38.47;102104.69;5180457;28;20430;-52
2022/04/26 10:46:34;;;;;;;5.38;2.80;;;;;;;17.61;38.42;102113.53;5179532;28;20427;-51
2022/04/26 10:49:43;;;;;;;4.63;2.55;;;;;;;17.67;38.37;102107.53;5182717;28;20422;-53
2022/04/26 10:52:47;;;;;;;5.53;2.63;;;;;;;17.28;38.63;102098.31;5180960;28;20435;-49
2022/04/26 10:55:27;;;;;;;7.30;2.40;;;;;;;17.19;38.52;102104.63;5180065;28;20752;-53
2022/04/26 10:58:02;;;;;;;6.18;2.35;;;;;;;17.18;38.61;102083.41;5162726;28;20417;-53
2022/04/26 11:00:37;;;;;;;4.97;2.30;;;;;;;17.28;38.46;102113.47;5170623;28;21597;-51
2022/04/26 11:03:13;;;;;;;4.63;3.08;;;;;;;17.29;38.34;102115.16;5157332;28;20503;-52
2022/04/26 11:05:45;;;;;;;6.60;2.17;;;;;;;17.55;38.22;102119.53;5166258;28;20446;-51
2022/04/26 11:08:19;;;;;;;4.00;2.00;;;;;;;17.70;37.97;102113.38;5165914;28;20412;-50
2022/04/26 11:11:07;;;;;;;6.75;2.20;;;;;;;17.80;38.10;102112.41;5165200;28;20501;-51
2022/04/26 11:13:39;;;;;;;5.95;2.20;;;;;;;17.88;37.61;102073.19;5164785;28;20889;-50
2022/04/26 11:16:14;;;;;;;2.30;2.00;;;;;;;18.24;37.29;102118.28;5150446;28;20543;-57
2022/04/26 11:18:48;;;;;;;4.10;2.03;;;;;;;18.38;37.04;102114.88;5165356;28;20488;-56
2022/04/26 11:21:20;;;;;;;4.15;1.85;;;;;;;18.50;36.43;102125.25;5166644;28;20428;-53
2022/04/26 11:29:51;;;;;;;7.60;3.07;;;;;;;18.33;36.49;102119.91;5166374;28;20494;-49
2022/04/26 11:32:31;;;;;;;9.38;3.75;;;;;;;18.30;36.69;102132.78;5164540;28;20454;-52
2022/04/26 11:35:05;;;;;;;10.20;3.10;;;;;;;18.05;36.88;102099.88;5159975;28;20417;-50
2022/04/26 11:37:44;;;;;;;6.20;3.10;;;;;;;18.15;37.03;102127.31;5164384;28;20425;-51
2022/04/26 11:40:27;;;;;;;4.60;2.65;;;;;;;18.15;37.24;102140.69;5166351;28;20487;-51
2022/04/26 11:43:06;;;;;;;6.75;3.50;;;;;;;18.18;37.35;102116.28;5166466;28;20479;-50
2022/04/26 11:45:41;;;;;;;9.30;3.38;;;;;;;17.68;37.48;102050.44;5167443;28;20522;-53
2022/04/26 11:48:15;;;;;;;5.18;2.85;;;;;;;17.89;37.73;102117.59;5167927;28;20421;-52
2022/04/26 11:50:50;;;;;;;7.27;3.10;;;;;;;17.51;37.88;102054.94;5172701;28;23642;-50
2022/04/26 11:53:24;;;;;;;7.78;2.80;;;;;;;18.13;37.73;102134.66;5170182;28;20850;-50
2022/04/26 11:56:01;;;;;;;4.85;3.10;;;;;;;18.25;37.63;102140.50;5170149;28;20495;-53
2022/04/26 11:58:35;;;;;;;5.65;3.00;;;;;;;18.38;37.47;102141.63;5167570;28;20420;-50
2022/04/26 12:01:11;;;;;;;5.63;2.50;;;;;;;18.55;37.35;102145.13;5169056;28;20504;-50
2022/04/26 12:03:47;;;;;;;7.45;3.55;;;;;;;18.62;37.21;102146.13;5164545;28;20439;-53
2022/04/26 12:06:25;;;;;;;6.78;3.50;;;;;;;18.86;36.96;102144.38;5166469;28;20514;-53
2022/04/26 12:09:00;;;;;;;10.20;2.90;;;;;;;18.86;36.84;102155.94;5162732;28;20492;-45
2022/04/26 12:11:38;;;;;;;7.47;2.90;;;;;;;18.78;37.02;102166.69;5165056;28;20423;-50
2022/04/26 12:14:12;;;;;;;7.20;3.42;;;;;;;18.43;37.29;102146.50;5168968;28;20468;-50
2022/04/26 12:16:47;;;;;;;4.57;2.78;;;;;;;18.15;37.58;102154.03;5169660;28;20503;-48
2022/04/26 12:19:19;;;;;;;6.03;3.00;;;;;;;17.93;37.67;102161.72;5160558;28;20924;-54
2022/04/26 12:21:54;;;;;;;11.07;2.80;;;;;;;17.87;37.81;102162.38;5165564;28;20436;-49
2022/04/26 12:24:29;;;;;;;6.72;2.80;;;;;;;17.81;37.71;102157.69;5167432;28;20425;-48
2022/04/26 12:27:07;;;;;;;6.53;3.08;;;;;;;17.55;37.45;102111.53;5162043;28;20420;-51
2022/04/26 12:29:43;;;;;;;4.70;2.40;;;;;;;18.38;37.19;102162.22;5168089;28;20562;-49
2022/04/26 12:32:18;;;;;;;5.63;2.92;;;;;;;18.63;37.17;102163.00;5166075;28;20524;-54
2022/04/26 12:34:52;;;;;;;5.35;2.35;;;;;;;18.37;36.90;102121.25;5162664;28;20405;-49
2022/04/26 12:37:26;;;;;;;3.20;2.60;;;;;;;19.03;36.73;102155.88;5157761;28;20423;-50
2022/04/26 12:40:06;;;;;;;3.45;2.42;;;;;;;19.17;36.80;102163.19;5160175;28;20424;-48
2022/04/26 12:42:42;;;;;;;6.00;2.60;;;;;;;19.27;36.46;102162.97;5166905;28;20435;-50
2022/04/26 12:45:21;;;;;;;4.20;2.67;;;;;;;19.28;36.28;102141.38;5156922;28;20433;-50
2022/04/26 12:51:13;;;;;;;6.23;2.73;;;;;;;19.25;36.38;102148.94;5172870;28;20533;-51
2022/04/26 12:53:46;;;;;;;4.68;2.92;;;;;;;19.24;36.44;102166.84;5166782;28;20893;-51
2022/04/26 12:56:20;;;;;;;5.75;2.40;;;;;;;19.29;36.42;102169.84;5166505;28;20413;-53
2022/04/26 12:58:54;;;;;;;7.60;2.65;;;;;;;19.24;36.29;102166.84;5167246;28;20437;-49
2022/04/26 13:01:28;;;;;;;5.53;2.77;;;;;;;19.41;36.45;102166.75;5166107;28;20499;-50
2022/04/26 13:04:00;;;;;;;4.23;2.87;;;;;;;19.50;36.36;102171.88;5162957;28;20430;-53
2022/04/26 13:06:33;;;;;;;10.93;3.70;;;;;;;19.31;36.48;102140.19;5166377;28;21843;-51
2022/04/26 13:09:05;;;;;;;6.22;2.53;;;;;;;19.36;36.42;102145.88;5167762;28;20444;-52
2022/04/26 13:11:39;;;;;;;6.18;2.28;;;;;;;19.58;36.33;102168.34;5165296;28;20817;-49
2022/04/26 13:14:13;;;;;;;8.65;2.75;;;;;;;19.61;36.42;102165.31;5166413;28;20408;-50
2022/04/26 13:16:45;;;;;;;4.95;2.67;;;;;;;19.40;36.40;102186.53;5166451;28;20427;-53
2022/04/26 13:19:18;;;;;;;4.55;2.53;;;;;;;19.10;36.62;102170.25;5165606;28;20413;-53
2022/04/26 13:21:50;;;;;;;4.95;2.70;;;;;;;19.04;36.59;102160.22;5157486;28;20844;-49
2022/04/26 13:24:28;;;;;;;4.47;2.30;;;;;;;18.80;36.55;102167.34;5166078;28;20822;-52
2022/04/26 13:27:00;;;;;;;5.03;2.10;;;;;;;18.54;36.58;102164.03;5162595;28;20413;-49
2022/04/26 13:29:34;;;;;;;5.95;2.17;;;;;;;18.39;36.62;102171.88;5165718;28;20495;-51
2022/04/26 13:32:07;;;;;;;4.10;2.47;;;;;;;18.36;36.52;102154.34;5167017;28;20413;-51
2022/04/26 13:34:40;;;;;;;3.07;2.10;;;;;;;18.46;36.51;102170.22;5166568;28;20824;-48
2022/04/26 13:37:12;;;;;;;3.30;2.50;;;;;;;18.53;36.61;102157.00;5166882;28;20499;-52
2022/04/26 13:39:45;;;;;;;4.03;2.47;;;;;;;18.82;36.24;102173.34;5165194;28;20443;-53
2022/04/26 13:42:19;;;;;;;4.60;2.20;;;;;;;18.93;36.30;102179.34;5167180;28;21261;-52
2022/04/26 13:44:53;;;;;;;5.55;2.53;;;;;;;18.60;36.41;102126.72;5162776;28;20505;-49
2022/04/26 13:47:26;;;;;;;4.32;2.50;;;;;;;18.70;36.55;102142.56;5171718;28;20765;-47
2022/04/26 13:49:58;;;;;;;4.50;2.50;;;;;;;18.83;36.59;102148.28;5159953;28;20715;-45
2022/04/26 13:52:31;;;;;;;5.97;2.47;;;;;;;19.04;36.49;102173.63;5162583;28;20908;-50
2022/04/26 13:55:03;;;;;;;6.37;2.60;;;;;;;19.00;36.43;102148.19;5147783;28;20508;-54
2022/04/26 13:57:36;;;;;;;5.28;2.60;;;;;;;19.13;36.70;102167.22;5182299;28;20423;-52
2022/04/26 14:00:12;;;;;;;4.28;2.80;;;;;;;18.95;36.91;102164.78;5188512;28;20513;-52
2022/04/26 14:02:48;;;;;;;7.20;2.87;;;;;;;18.67;37.37;102161.63;5186620;28;20822;-53
2022/04/26 14:05:23;;;;;;;4.60;2.50;;;;;;;18.54;37.51;102164.84;5186002;28;20399;-52
2022/04/26 14:07:56;;;;;;;5.33;2.63;;;;;;;18.43;37.51;102163.38;5188508;28;20930;-54
2022/04/26 14:10:29;;;;;;;7.07;2.97;;;;;;;17.82;37.78;102105.91;5186068;28;20414;-49
2022/04/26 14:13:01;;;;;;;7.95;3.20;;;;;;;18.52;37.71;102161.53;5181101;28;20496;-51
2022/04/26 14:24:12;;;;;;;6.95;2.60;;;;;;;18.40;37.97;102158.38;5185103;28;20407;-53
2022/04/26 14:26:45;;;;;;;5.05;2.95;;;;;;;18.51;38.19;102165.19;5184488;28;20419;-52
2022/04/26 14:29:17;;;;;;;4.93;2.70;;;;;;;18.70;38.21;102169.31;5183610;28;20908;-52
2022/04/26 14:31:51;;;;;;;7.78;2.95;;;;;;;18.84;38.27;102168.66;5184454;28;20418;-53
2022/04/26 14:34:24;;;;;;;5.97;2.22;;;;;;;19.04;38.21;102165.56;5184065;28;20418;-53
2022/04/26 14:36:58;;;;;;;4.10;2.40;;;;;;;19.09;38.02;102157.88;5182725;28;20485;-54
2022/04/26 14:39:31;;;;;;;4.13;2.90;;;;;;;18.91;37.84;102135.84;5179635;28;20442;-53
2022/04/26 14:42:04;;;;;;;4.63;2.70;;;;;;;19.10;37.91;102156.84;5185540;28;20451;-49
2022/04/26 14:44:37;;;;;;;5.65;3.22;;;;;;;19.13;37.82;102167.22;5186217;28;20427;-52
2022/04/26 14:47:12;;;;;;;4.55;2.75;;;;;;;19.35;37.62;102163.78;5186733;28;20498;-51
2022/04/26 14:49:44;;;;;;;4.65;2.70;;;;;;;19.72;37.38;102162.22;5190892;28;20939;-54
2022/04/26 14:52:21;;;;;;;9.70;3.13;;;;;;;19.74;37.23;102146.81;5183422;28;20494;-54
2022/04/26 14:54:55;;;;;;;3.50;2.42;;;;;;;19.90;37.05;102153.91;5182359;28;20516;-52
2022/04/26 14:57:27;;;;;;;6.20;2.73;;;;;;;20.17;37.06;102152.50;5169350;28;20873;-53
2022/04/26 15:00:02;;;;;;;6.23;2.60;;;;;;;20.25;36.85;102152.44;5162865;28;20456;-53
2022/04/26 15:02:39;;;;;;;4.70;2.40;;;;;;;19.91;37.20;102090.38;5164178;28;20762;-54
2022/04/26 15:05:13;;;;;;;9.70;2.42;;;;;;;20.37;37.47;102152.00;5165452;28;20441;-54
2022/04/26 15:10:35;;;;;;;3.55;2.30;;;;;;;20.44;37.85;102152.91;5155974;28;20507;-54
2022/04/26 15:18:48;;;;;;;6.10;2.47;;;;;;;20.61;37.52;102154.47;5162146;28;20479;-51
2022/04/26 15:21:22;;;;;;;6.93;2.58;;;;;;;20.53;37.63;102154.53;5162006;28;20487;-52
2022/04/26 15:23:55;;;;;;;8.52;2.75;;;;;;;20.54;37.58;102158.91;5166396;28;20407;-54
2022/04/26 15:26:27;;;;;;;6.43;2.55;;;;;;;20.50;37.83;102146.81;5165342;28;20425;-52
2022/04/26 15:29:00;;;;;;;7.18;2.20;;;;;;;20.62;37.82;102150.75;5161996;28;20437;-56
2022/04/26 15:31:32;;;;;;;5.78;2.47;;;;;;;20.76;37.73;102156.31;5164040;28;20432;-52
2022/04/26 15:34:06;;;;;;;6.50;3.33;;;;;;;20.92;37.56;102161.50;5162721;28;20852;-54
2022/04/26 15:36:39;;;;;;;6.55;2.58;;;;;;;20.98;37.75;102162.63;5160216;28;20551;-55
2022/04/26 15:39:12;;;;;;;5.72;2.60;;;;;;;20.73;37.76;102163.72;5157730;28;20910;-54
2022/04/26 15:41:45;;;;;;;9.10;3.57;;;;;;;20.44;37.88;102163.66;5166601;28;20516;-54
2022/04/26 15:44:17;;;;;;;4.43;2.40;;;;;;;20.04;37.99;102168.38;5164907;28;20433;-54
2022/04/26 15:46:52;;;;;;;20.45;2.83;;;;;;;19.86;38.25;102166.00;5163979;28;20438;-55
2022/04/26 15:49:26;;;;;;;8.53;3.00;;;;;;;19.76;38.45;102171.59;5164480;28;20483;-55
2022/04/26 15:51:59;;;;;;;8.30;3.30;;;;;;;19.51;38.40;102167.34;5159736;28;21194;-48
2022/04/26 15:54:32;;;;;;;5.63;2.60;;;;;;;19.55;38.83;102187.44;5162993;28;20420;-53
2022/04/26 15:57:05;;;;;;;6.03;2.67;;;;;;;19.34;38.90;102178.16;5166257;28;20747;-53
2022/04/26 15:59:37;;;;;;;7.43;2.53;;;;;;;18.96;39.29;102179.00;5164471;28;20952;-50
2022/04/26 16:02:10;;;;;;;5.97;3.10;;;;;;;18.69;39.88;102172.19;5158675;28;20515;-51
2022/04/26 16:05:09;;;;;;;6.72;2.88;;;;;;;18.62;39.88;102185.41;5157461;28;20419;-51
2022/04/26 16:07:41;;;;;;;7.32;2.95;;;;;;;18.28;39.81;102149.00;5157038;28;20468;-54
2022/04/26 16:21:35;;;;;;;6.38;2.92;;;;;;;17.79;40.11;102186.41;5155596;28;20936;-50